sensor_id;sensor_type;location;lat;lon;timestamp;temperature;humidity
6429;DHT22;3247;48.946;10.220;2023-04-01T00:02:00;8.20;99.90
6429;DHT22;3247;48.946;10.220;2023-04-01T00:04:25;7.80;99.90
6429;DHT22;3247;48.946;10.220;2023-04-01T00:06:51;7.80;99.90
6429;DHT22;3247;48.946;10.220;2023-04-01T00:09:17;7.80;99.90
6429;DHT22;3247;48.946;10.220;2023-04-01T00:11:43;7.80;99.90
6429;DHT22;3247;48.946;10.220;2023-04-01T00:14:10;7.80;99.90
6429;DHT22;3247;48.946;10.220;2023-04-01T00:16:36;7.80;99.90
6429;DHT22;3247;48.946;10.220;2023-04-01T00:19:01;7.80;99.90
6429;DHT22;3247;48.946;10.220;2023-04-01T00:21:27;7.80;99.90
6429;DHT22;3247;48.946;10.220;2023-04-01T00:23:52;7.80;99.90
6429;DHT22;3247;48.946;10.220;2023-04-01T00:26:18;7.70;99.90
6429;DHT22;3247;48.946;10.220;2023-04-01T00:28:44;7.70;99.90
6429;DHT22;3247;48.946;10.220;2023-04-01T00:31:13;7.60;99.90
6429;DHT22;3247;48.946;10.220;2023-04-01T00:33:42;7.50;99.90
6429;DHT22;3247;48.946;10.220;2023-04-01T00:38:37;7.40;99.90
6429;DHT22;3247;48.946;10.220;2023-04-01T00:41:03;7.40;99.90
6429;DHT22;3247;48.946;10.220;2023-04-01T00:43:28;7.40;99.90
6429;DHT22;3247;48.946;10.220;2023-04-01T00:45:54;7.40;99.90
6429;DHT22;3247;48.946;10.220;2023-04-01T00:48:21;7.40;99.90
6429;DHT22;3247;48.946;10.220;2023-04-01T00:50:51;7.40;99.90
6429;DHT22;3247;48.946;10.220;2023-04-01T00:53:17;7.50;99.90
6429;DHT22;3247;48.946;10.220;2023-04-01T00:55:45;7.50;99.90
6429;DHT22;3247;48.946;10.220;2023-04-01T00:58:15;7.50;99.90
6429;DHT22;3247;48.946;10.220;2023-04-01T01:00:41;7.50;99.90
6429;DHT22;3247;48.946;10.220;2023-04-01T01:03:07;7.60;99.90
6429;DHT22;3247;48.946;10.220;2023-04-01T01:05:55;7.60;99.90
6429;DHT22;3247;48.946;10.220;2023-04-01T01:11:02;7.60;99.90
6429;DHT22;3247;48.946;10.220;2023-04-01T01:13:32;7.60;99.90
6429;DHT22;3247;48.946;10.220;2023-04-01T01:16:10;7.60;99.90
6429;DHT22;3247;48.946;10.220;2023-04-01T01:26:23;7.60;99.90
6429;DHT22;3247;48.946;10.220;2023-04-01T01:36:53;7.60;99.90
6429;DHT22;3247;48.946;10.220;2023-04-01T01:39:19;7.60;99.90
6429;DHT22;3247;48.946;10.220;2023-04-01T01:41:45;7.60;99.90
6429;DHT22;3247;48.946;10.220;2023-04-01T01:44:14;7.60;99.90
6429;DHT22;3247;48.946;10.220;2023-04-01T01:46:41;7.60;99.90
6429;DHT22;3247;48.946;10.220;2023-04-01T01:49:07;7.60;99.90
6429;DHT22;3247;48.946;10.220;2023-04-01T01:51:34;7.60;99.90
6429;DHT22;3247;48.946;10.220;2023-04-01T01:54:00;7.60;99.90
6429;DHT22;3247;48.946;10.220;2023-04-01T01:56:25;7.60;99.90
6429;DHT22;3247;48.946;10.220;2023-04-01T01:59:00;7.50;99.90
6429;DHT22;3247;48.946;10.220;2023-04-01T02:01:29;7.50;99.90
6429;DHT22;3247;48.946;10.220;2023-04-01T02:03:59;7.50;99.90
6429;DHT22;3247;48.946;10.220;2023-04-01T02:06:26;7.50;99.90
6429;DHT22;3247;48.946;10.220;2023-04-01T02:08:56;7.50;99.90
6429;DHT22;3247;48.946;10.220;2023-04-01T02:11:24;7.40;99.90
6429;DHT22;3247;48.946;10.220;2023-04-01T02:13:55;7.40;99.90
6429;DHT22;3247;48.946;10.220;2023-04-01T02:16:26;7.40;99.90
6429;DHT22;3247;48.946;10.220;2023-04-01T02:18:54;7.40;99.90
6429;DHT22;3247;48.946;10.220;2023-04-01T02:21:20;7.30;99.90
6429;DHT22;3247;48.946;10.220;2023-04-01T02:23:47;7.40;99.90
6429;DHT22;3247;48.946;10.220;2023-04-01T02:26:13;7.30;99.90
6429;DHT22;3247;48.946;10.220;2023-04-01T02:28:40;7.30;99.90
6429;DHT22;3247;48.946;10.220;2023-04-01T02:31:06;7.30;99.90
6429;DHT22;3247;48.946;10.220;2023-04-01T02:33:33;7.20;99.90
6429;DHT22;3247;48.946;10.220;2023-04-01T02:35:58;7.30;99.90
6429;DHT22;3247;48.946;10.220;2023-04-01T02:38:24;7.30;99.90
6429;DHT22;3247;48.946;10.220;2023-04-01T02:40:51;7.20;99.90
6429;DHT22;3247;48.946;10.220;2023-04-01T02:43:16;7.10;99.90
6429;DHT22;3247;48.946;10.220;2023-04-01T02:45:43;7.10;99.90
6429;DHT22;3247;48.946;10.220;2023-04-01T02:48:09;7.10;99.90
6429;DHT22;3247;48.946;10.220;2023-04-01T02:50:34;7.20;99.90
6429;DHT22;3247;48.946;10.220;2023-04-01T02:53:00;7.20;99.90
6429;DHT22;3247;48.946;10.220;2023-04-01T02:55:26;7.20;99.90
6429;DHT22;3247;48.946;10.220;2023-04-01T02:57:51;7.10;99.90
6429;DHT22;3247;48.946;10.220;2023-04-01T03:00:17;7.10;99.90
6429;DHT22;3247;48.946;10.220;2023-04-01T03:02:42;7.10;99.90
6429;DHT22;3247;48.946;10.220;2023-04-01T03:05:09;7.10;99.90
6429;DHT22;3247;48.946;10.220;2023-04-01T03:07:35;7.10;99.90
6429;DHT22;3247;48.946;10.220;2023-04-01T03:10:00;7.10;99.90
6429;DHT22;3247;48.946;10.220;2023-04-01T03:12:26;7.10;99.90
6429;DHT22;3247;48.946;10.220;2023-04-01T03:14:51;7.10;99.90
6429;DHT22;3247;48.946;10.220;2023-04-01T03:17:17;7.10;99.90
6429;DHT22;3247;48.946;10.220;2023-04-01T03:19:42;7.00;99.90
6429;DHT22;3247;48.946;10.220;2023-04-01T03:22:09;7.00;99.90
6429;DHT22;3247;48.946;10.220;2023-04-01T03:24:35;6.90;99.90
6429;DHT22;3247;48.946;10.220;2023-04-01T03:27:01;6.90;99.90
6429;DHT22;3247;48.946;10.220;2023-04-01T03:29:26;6.80;99.90
6429;DHT22;3247;48.946;10.220;2023-04-01T03:31:52;6.80;99.90
6429;DHT22;3247;48.946;10.220;2023-04-01T03:34:17;6.80;99.90
6429;DHT22;3247;48.946;10.220;2023-04-01T03:36:43;6.70;99.90
6429;DHT22;3247;48.946;10.220;2023-04-01T03:39:08;6.70;99.90
6429;DHT22;3247;48.946;10.220;2023-04-01T03:41:35;6.70;99.90
6429;DHT22;3247;48.946;10.220;2023-04-01T03:44:00;6.70;99.90
6429;DHT22;3247;48.946;10.220;2023-04-01T03:46:26;6.60;99.90
6429;DHT22;3247;48.946;10.220;2023-04-01T03:48:51;6.70;99.90
6429;DHT22;3247;48.946;10.220;2023-04-01T03:51:17;6.60;99.90
6429;DHT22;3247;48.946;10.220;2023-04-01T03:53:42;6.70;99.90
6429;DHT22;3247;48.946;10.220;2023-04-01T03:56:08;6.70;99.90
6429;DHT22;3247;48.946;10.220;2023-04-01T03:58:34;6.70;99.90
6429;DHT22;3247;48.946;10.220;2023-04-01T04:01:00;6.70;99.90
6429;DHT22;3247;48.946;10.220;2023-04-01T04:03:28;6.70;99.90
6429;DHT22;3247;48.946;10.220;2023-04-01T04:05:54;6.70;99.90
6429;DHT22;3247;48.946;10.220;2023-04-01T04:08:21;6.70;99.90
6429;DHT22;3247;48.946;10.220;2023-04-01T04:10:47;6.60;99.90
6429;DHT22;3247;48.946;10.220;2023-04-01T04:13:13;6.70;99.90
6429;DHT22;3247;48.946;10.220;2023-04-01T04:15:38;6.70;99.90
6429;DHT22;3247;48.946;10.220;2023-04-01T04:18:04;6.70;99.90
6429;DHT22;3247;48.946;10.220;2023-04-01T04:20:29;6.70;99.90
6429;DHT22;3247;48.946;10.220;2023-04-01T04:22:55;6.70;99.90
6429;DHT22;3247;48.946;10.220;2023-04-01T04:25:20;6.70;99.90
6429;DHT22;3247;48.946;10.220;2023-04-01T04:27:45;6.60;99.90
6429;DHT22;3247;48.946;10.220;2023-04-01T04:30:11;6.70;99.90
6429;DHT22;3247;48.946;10.220;2023-04-01T04:32:37;6.70;99.90
6429;DHT22;3247;48.946;10.220;2023-04-01T04:35:02;6.60;99.90
6429;DHT22;3247;48.946;10.220;2023-04-01T04:37:28;6.60;99.90
6429;DHT22;3247;48.946;10.220;2023-04-01T04:39:53;6.60;99.90
6429;DHT22;3247;48.946;10.220;2023-04-01T04:42:19;6.10;99.90
6429;DHT22;3247;48.946;10.220;2023-04-01T04:44:44;6.50;99.90
6429;DHT22;3247;48.946;10.220;2023-04-01T04:47:10;6.80;99.90
6429;DHT22;3247;48.946;10.220;2023-04-01T04:49:35;6.50;99.90
6429;DHT22;3247;48.946;10.220;2023-04-01T04:52:01;6.50;99.90
6429;DHT22;3247;48.946;10.220;2023-04-01T04:54:26;6.50;99.90
6429;DHT22;3247;48.946;10.220;2023-04-01T04:56:52;6.50;99.90
6429;DHT22;3247;48.946;10.220;2023-04-01T04:59:18;6.50;99.90
6429;DHT22;3247;48.946;10.220;2023-04-01T05:01:43;6.50;99.90
6429;DHT22;3247;48.946;10.220;2023-04-01T05:04:12;6.50;99.90
6429;DHT22;3247;48.946;10.220;2023-04-01T05:06:37;6.60;99.90
6429;DHT22;3247;48.946;10.220;2023-04-01T05:09:03;6.60;99.90
6429;DHT22;3247;48.946;10.220;2023-04-01T05:11:28;6.60;99.90
6429;DHT22;3247;48.946;10.220;2023-04-01T05:13:53;6.60;99.90
6429;DHT22;3247;48.946;10.220;2023-04-01T05:16:19;6.70;99.90
6429;DHT22;3247;48.946;10.220;2023-04-01T05:18:45;6.70;99.90
6429;DHT22;3247;48.946;10.220;2023-04-01T05:21:11;6.70;99.90
6429;DHT22;3247;48.946;10.220;2023-04-01T05:23:37;6.80;99.90
6429;DHT22;3247;48.946;10.220;2023-04-01T05:26:03;6.70;99.90
6429;DHT22;3247;48.946;10.220;2023-04-01T05:28:29;7.00;99.90
6429;DHT22;3247;48.946;10.220;2023-04-01T05:30:55;6.80;99.90
6429;DHT22;3247;48.946;10.220;2023-04-01T05:33:23;6.90;99.90
6429;DHT22;3247;48.946;10.220;2023-04-01T05:35:48;6.90;99.90
6429;DHT22;3247;48.946;10.220;2023-04-01T05:38:14;6.90;99.90
6429;DHT22;3247;48.946;10.220;2023-04-01T05:40:39;7.00;99.90
6429;DHT22;3247;48.946;10.220;2023-04-01T05:43:05;7.00;99.90
6429;DHT22;3247;48.946;10.220;2023-04-01T05:45:30;7.10;99.90
6429;DHT22;3247;48.946;10.220;2023-04-01T05:47:56;6.70;99.90
6429;DHT22;3247;48.946;10.220;2023-04-01T05:50:21;7.20;99.90
6429;DHT22;3247;48.946;10.220;2023-04-01T05:52:47;7.30;99.90
6429;DHT22;3247;48.946;10.220;2023-04-01T05:55:12;7.40;99.90
6429;DHT22;3247;48.946;10.220;2023-04-01T05:57:38;6.80;99.90
6429;DHT22;3247;48.946;10.220;2023-04-01T06:00:03;7.50;99.90
6429;DHT22;3247;48.946;10.220;2023-04-01T06:02:29;7.60;99.90
6429;DHT22;3247;48.946;10.220;2023-04-01T06:05:01;7.70;99.90
6429;DHT22;3247;48.946;10.220;2023-04-01T06:07:27;7.70;99.90
6429;DHT22;3247;48.946;10.220;2023-04-01T06:09:53;7.80;99.90
6429;DHT22;3247;48.946;10.220;2023-04-01T06:15:08;8.00;99.90
6429;DHT22;3247;48.946;10.220;2023-04-01T06:28:09;8.10;99.90
6429;DHT22;3247;48.946;10.220;2023-04-01T06:30:51;8.10;99.90
6429;DHT22;3247;48.946;10.220;2023-04-01T06:33:25;8.10;99.90
6429;DHT22;3247;48.946;10.220;2023-04-01T06:36:03;8.20;99.90
6429;DHT22;3247;48.946;10.220;2023-04-01T06:38:49;8.20;99.90
6429;DHT22;3247;48.946;10.220;2023-04-01T06:43:55;8.30;99.90
6429;DHT22;3247;48.946;10.220;2023-04-01T06:46:30;8.30;99.90
6429;DHT22;3247;48.946;10.220;2023-04-01T06:51:28;8.40;99.90
6429;DHT22;3247;48.946;10.220;2023-04-01T06:53:58;8.40;99.90
6429;DHT22;3247;48.946;10.220;2023-04-01T06:56:27;8.50;99.90
6429;DHT22;3247;48.946;10.220;2023-04-01T06:59:00;8.50;99.90
6429;DHT22;3247;48.946;10.220;2023-04-01T07:01:44;8.60;99.90
6429;DHT22;3247;48.946;10.220;2023-04-01T07:09:12;8.80;99.90
6429;DHT22;3247;48.946;10.220;2023-04-01T07:11:38;8.90;99.90
6429;DHT22;3247;48.946;10.220;2023-04-01T07:19:18;9.30;99.90
6429;DHT22;3247;48.946;10.220;2023-04-01T07:24:13;9.30;99.90
6429;DHT22;3247;48.946;10.220;2023-04-01T07:26:41;9.30;99.90
6429;DHT22;3247;48.946;10.220;2023-04-01T07:29:10;9.40;99.90
6429;DHT22;3247;48.946;10.220;2023-04-01T07:31:43;9.40;99.90
6429;DHT22;3247;48.946;10.220;2023-04-01T07:37:02;9.30;99.90
6429;DHT22;3247;48.946;10.220;2023-04-01T07:39:47;9.30;99.90
6429;DHT22;3247;48.946;10.220;2023-04-01T07:45:28;9.30;99.90
6429;DHT22;3247;48.946;10.220;2023-04-01T07:52:53;9.50;99.90
6429;DHT22;3247;48.946;10.220;2023-04-01T08:03:28;9.60;99.90
6429;DHT22;3247;48.946;10.220;2023-04-01T08:11:08;9.80;99.90
6429;DHT22;3247;48.946;10.220;2023-04-01T08:13:45;9.80;99.90
6429;DHT22;3247;48.946;10.220;2023-04-01T08:16:23;9.70;99.90
6429;DHT22;3247;48.946;10.220;2023-04-01T08:21:21;9.80;99.90
6429;DHT22;3247;48.946;10.220;2023-04-01T08:23:47;9.80;99.90
6429;DHT22;3247;48.946;10.220;2023-04-01T08:26:20;9.90;99.90
6429;DHT22;3247;48.946;10.220;2023-04-01T08:31:18;9.90;99.90
6429;DHT22;3247;48.946;10.220;2023-04-01T08:33:48;9.90;99.90
6429;DHT22;3247;48.946;10.220;2023-04-01T08:41:28;10.20;99.90
6429;DHT22;3247;48.946;10.220;2023-04-01T08:44:04;10.30;99.90
6429;DHT22;3247;48.946;10.220;2023-04-01T08:46:56;10.50;99.90
6429;DHT22;3247;48.946;10.220;2023-04-01T08:49:30;10.50;99.90
6429;DHT22;3247;48.946;10.220;2023-04-01T08:52:18;10.60;99.90
6429;DHT22;3247;48.946;10.220;2023-04-01T08:54:49;10.70;99.90
6429;DHT22;3247;48.946;10.220;2023-04-01T09:12:42;10.30;99.90
6429;DHT22;3247;48.946;10.220;2023-04-01T09:25:45;9.90;99.90
6429;DHT22;3247;48.946;10.220;2023-04-01T09:31:00;9.70;99.90
6429;DHT22;3247;48.946;10.220;2023-04-01T09:36:19;9.70;99.90
6429;DHT22;3247;48.946;10.220;2023-04-01T09:39:06;9.70;99.90
6429;DHT22;3247;48.946;10.220;2023-04-01T09:41:41;9.80;99.90
6429;DHT22;3247;48.946;10.220;2023-04-01T09:44:18;9.90;99.90
6429;DHT22;3247;48.946;10.220;2023-04-01T09:54:45;10.20;99.90
6429;DHT22;3247;48.946;10.220;2023-04-01T10:10:38;10.60;99.90
6429;DHT22;3247;48.946;10.220;2023-04-01T10:13:30;10.60;99.90
6429;DHT22;3247;48.946;10.220;2023-04-01T10:16:03;10.60;99.90
6429;DHT22;3247;48.946;10.220;2023-04-01T10:18:51;10.50;99.90
6429;DHT22;3247;48.946;10.220;2023-04-01T10:24:08;10.60;99.90
6429;DHT22;3247;48.946;10.220;2023-04-01T10:31:56;10.90;99.90
6429;DHT22;3247;48.946;10.220;2023-04-01T10:36:58;10.70;99.90
6429;DHT22;3247;48.946;10.220;2023-04-01T10:39:31;10.60;99.90
6429;DHT22;3247;48.946;10.220;2023-04-01T10:49:52;10.30;99.90
6429;DHT22;3247;48.946;10.220;2023-04-01T10:52:46;10.30;99.90
6429;DHT22;3247;48.946;10.220;2023-04-01T11:13:47;10.40;99.90
6429;DHT22;3247;48.946;10.220;2023-04-01T11:21:32;10.70;99.90
6429;DHT22;3247;48.946;10.220;2023-04-01T11:26:49;10.40;99.90
6429;DHT22;3247;48.946;10.220;2023-04-01T11:31:43;10.50;99.90
6429;DHT22;3247;48.946;10.220;2023-04-01T11:34:35;10.40;99.90
6429;DHT22;3247;48.946;10.220;2023-04-01T11:37:05;10.40;99.90
6429;DHT22;3247;48.946;10.220;2023-04-01T11:39:37;10.30;99.90
6429;DHT22;3247;48.946;10.220;2023-04-01T11:44:29;10.30;99.90
6429;DHT22;3247;48.946;10.220;2023-04-01T11:47:12;10.30;99.90
6429;DHT22;3247;48.946;10.220;2023-04-01T11:50:00;10.40;99.90
6429;DHT22;3247;48.946;10.220;2023-04-01T12:08:13;10.20;99.90
6429;DHT22;3247;48.946;10.220;2023-04-01T12:13:19;10.40;99.90
6429;DHT22;3247;48.946;10.220;2023-04-01T12:16:11;10.50;99.90
6429;DHT22;3247;48.946;10.220;2023-04-01T12:18:40;10.70;99.90
6429;DHT22;3247;48.946;10.220;2023-04-01T12:24:25;11.00;99.90
6429;DHT22;3247;48.946;10.220;2023-04-01T12:32:15;10.80;99.90
6429;DHT22;3247;48.946;10.220;2023-04-01T12:37:21;10.90;99.90
6429;DHT22;3247;48.946;10.220;2023-04-01T12:43:12;10.90;99.90
6429;DHT22;3247;48.946;10.220;2023-04-01T12:45:54;10.90;99.90
6429;DHT22;3247;48.946;10.220;2023-04-01T12:51:15;10.80;99.90
6429;DHT22;3247;48.946;10.220;2023-04-01T12:54:02;10.70;99.90
6429;DHT22;3247;48.946;10.220;2023-04-01T13:01:47;10.70;99.90
6429;DHT22;3247;48.946;10.220;2023-04-01T13:14:40;11.40;99.90
6429;DHT22;3247;48.946;10.220;2023-04-01T13:22:28;11.10;99.90
6429;DHT22;3247;48.946;10.220;2023-04-01T13:27:51;10.90;99.90
6429;DHT22;3247;48.946;10.220;2023-04-01T13:30:24;10.90;99.90
6429;DHT22;3247;48.946;10.220;2023-04-01T13:33:14;10.80;99.90
6429;DHT22;3247;48.946;10.220;2023-04-01T13:35:48;10.80;99.90
6429;DHT22;3247;48.946;10.220;2023-04-01T13:41:22;10.10;99.90
6429;DHT22;3247;48.946;10.220;2023-04-01T13:44:16;10.70;99.90
6429;DHT22;3247;48.946;10.220;2023-04-01T13:55:00;10.80;99.90
6429;DHT22;3247;48.946;10.220;2023-04-01T14:00:19;11.20;99.90
6429;DHT22;3247;48.946;10.220;2023-04-01T14:05:49;11.20;99.90
6429;DHT22;3247;48.946;10.220;2023-04-01T14:11:20;11.00;99.90
6429;DHT22;3247;48.946;10.220;2023-04-01T14:26:57;10.70;99.90
6429;DHT22;3247;48.946;10.220;2023-04-01T14:29:29;10.70;99.90
6429;DHT22;3247;48.946;10.220;2023-04-01T14:42:18;10.90;99.90
6429;DHT22;3247;48.946;10.220;2023-04-01T14:45:12;10.90;99.90
6429;DHT22;3247;48.946;10.220;2023-04-01T14:50:49;10.90;99.90
6429;DHT22;3247;48.946;10.220;2023-04-01T14:55:49;10.80;99.90
6429;DHT22;3247;48.946;10.220;2023-04-01T14:58:16;10.70;99.90
6429;DHT22;3247;48.946;10.220;2023-04-01T15:08:25;10.60;99.90
6429;DHT22;3247;48.946;10.220;2023-04-01T15:10:53;10.40;99.90
6429;DHT22;3247;48.946;10.220;2023-04-01T15:13:29;10.40;99.90
6429;DHT22;3247;48.946;10.220;2023-04-01T15:18:56;10.30;99.90
6429;DHT22;3247;48.946;10.220;2023-04-01T15:23:59;10.30;99.90
6429;DHT22;3247;48.946;10.220;2023-04-01T15:26:34;10.40;99.90
6429;DHT22;3247;48.946;10.220;2023-04-01T15:31:38;10.20;99.90
6429;DHT22;3247;48.946;10.220;2023-04-01T15:34:26;10.10;99.90
6429;DHT22;3247;48.946;10.220;2023-04-01T15:36:57;10.20;99.90
6429;DHT22;3247;48.946;10.220;2023-04-01T15:39:30;10.20;99.90
6429;DHT22;3247;48.946;10.220;2023-04-01T15:42:07;10.20;99.90
6429;DHT22;3247;48.946;10.220;2023-04-01T15:49:46;10.10;99.90
6429;DHT22;3247;48.946;10.220;2023-04-01T15:52:34;10.10;99.90
6429;DHT22;3247;48.946;10.220;2023-04-01T16:00:16;9.90;99.90
6429;DHT22;3247;48.946;10.220;2023-04-01T16:03:07;9.80;99.90
6429;DHT22;3247;48.946;10.220;2023-04-01T16:10:31;9.80;99.90
6429;DHT22;3247;48.946;10.220;2023-04-01T16:15:39;9.80;99.90
6429;DHT22;3247;48.946;10.220;2023-04-01T16:18:09;9.70;99.90
6429;DHT22;3247;48.946;10.220;2023-04-01T16:20:45;9.70;99.90
6429;DHT22;3247;48.946;10.220;2023-04-01T16:23:20;9.70;99.90
6429;DHT22;3247;48.946;10.220;2023-04-01T16:25:52;9.60;99.90
6429;DHT22;3247;48.946;10.220;2023-04-01T16:34:10;9.50;99.90
6429;DHT22;3247;48.946;10.220;2023-04-01T16:47:58;9.10;99.90
6429;DHT22;3247;48.946;10.220;2023-04-01T16:53:43;9.00;99.90
6429;DHT22;3247;48.946;10.220;2023-04-01T16:56:36;8.90;99.90
6429;DHT22;3247;48.946;10.220;2023-04-01T16:59:07;8.90;99.90
6429;DHT22;3247;48.946;10.220;2023-04-01T17:10:05;8.80;99.90
6429;DHT22;3247;48.946;10.220;2023-04-01T17:15:33;8.70;99.90
6429;DHT22;3247;48.946;10.220;2023-04-01T17:20:35;8.70;99.90
6429;DHT22;3247;48.946;10.220;2023-04-01T17:23:11;8.60;99.90
6429;DHT22;3247;48.946;10.220;2023-04-01T17:31:33;8.50;99.90
6429;DHT22;3247;48.946;10.220;2023-04-01T17:37:21;8.40;99.90
6429;DHT22;3247;48.946;10.220;2023-04-01T17:42:39;8.40;99.90
6429;DHT22;3247;48.946;10.220;2023-04-01T17:45:10;8.50;99.90
6429;DHT22;3247;48.946;10.220;2023-04-01T17:50:24;8.30;99.90
6429;DHT22;3247;48.946;10.220;2023-04-01T18:01:26;8.20;99.90
6429;DHT22;3247;48.946;10.220;2023-04-01T18:06:36;8.10;99.90
6429;DHT22;3247;48.946;10.220;2023-04-01T18:26:02;7.90;99.90
6429;DHT22;3247;48.946;10.220;2023-04-01T18:30:56;7.90;99.90
6429;DHT22;3247;48.946;10.220;2023-04-01T18:36:36;7.80;99.90
6429;DHT22;3247;48.946;10.220;2023-04-01T18:39:16;7.90;99.90
6429;DHT22;3247;48.946;10.220;2023-04-01T18:46:59;7.80;99.90
6429;DHT22;3247;48.946;10.220;2023-04-01T18:49:52;7.90;99.90
6429;DHT22;3247;48.946;10.220;2023-04-01T18:52:22;7.80;99.90
6429;DHT22;3247;48.946;10.220;2023-04-01T18:55:15;7.80;99.90
6429;DHT22;3247;48.946;10.220;2023-04-01T19:01:06;7.80;99.90
6429;DHT22;3247;48.946;10.220;2023-04-01T19:03:28;7.70;99.90
6429;DHT22;3247;48.946;10.220;2023-04-01T19:06:08;7.70;99.90
6429;DHT22;3247;48.946;10.220;2023-04-01T19:14:22;7.60;99.90
6429;DHT22;3247;48.946;10.220;2023-04-01T19:17:07;7.60;99.90
6429;DHT22;3247;48.946;10.220;2023-04-01T19:27:50;7.50;99.90
6429;DHT22;3247;48.946;10.220;2023-04-01T19:32:49;7.40;99.90
6429;DHT22;3247;48.946;10.220;2023-04-01T19:38:24;7.30;99.90
6429;DHT22;3247;48.946;10.220;2023-04-01T19:41:01;7.20;99.90
6429;DHT22;3247;48.946;10.220;2023-04-01T19:43:44;7.10;99.90
6429;DHT22;3247;48.946;10.220;2023-04-01T19:49:19;7.00;99.90
6429;DHT22;3247;48.946;10.220;2023-04-01T19:51:57;6.90;99.90
6429;DHT22;3247;48.946;10.220;2023-04-01T20:04:55;6.40;99.90
6429;DHT22;3247;48.946;10.220;2023-04-01T20:07:31;6.70;99.90
6429;DHT22;3247;48.946;10.220;2023-04-01T20:10:10;6.70;99.90
6429;DHT22;3247;48.946;10.220;2023-04-01T20:12:43;6.70;99.90
6429;DHT22;3247;48.946;10.220;2023-04-01T20:17:47;6.70;99.90
6429;DHT22;3247;48.946;10.220;2023-04-01T20:28:21;6.70;99.90
6429;DHT22;3247;48.946;10.220;2023-04-01T20:47:42;6.90;99.90
6429;DHT22;3247;48.946;10.220;2023-04-01T21:03:15;7.10;99.90
6429;DHT22;3247;48.946;10.220;2023-04-01T21:05:55;7.10;99.90
6429;DHT22;3247;48.946;10.220;2023-04-01T21:08:28;7.10;99.90
6429;DHT22;3247;48.946;10.220;2023-04-01T21:18:50;7.10;99.90
6429;DHT22;3247;48.946;10.220;2023-04-01T21:32:14;7.20;99.90
6429;DHT22;3247;48.946;10.220;2023-04-01T21:35:06;7.10;99.90
6429;DHT22;3247;48.946;10.220;2023-04-01T21:40:41;7.10;99.90
6429;DHT22;3247;48.946;10.220;2023-04-01T21:43:07;7.10;99.90
6429;DHT22;3247;48.946;10.220;2023-04-01T21:48:34;7.10;99.90
6429;DHT22;3247;48.946;10.220;2023-04-01T22:06:51;7.10;99.90
6429;DHT22;3247;48.946;10.220;2023-04-01T22:09:38;7.20;99.90
6429;DHT22;3247;48.946;10.220;2023-04-01T22:12:09;7.10;99.90
6429;DHT22;3247;48.946;10.220;2023-04-01T22:19:45;7.10;99.90
6429;DHT22;3247;48.946;10.220;2023-04-01T22:22:22;7.10;99.90
6429;DHT22;3247;48.946;10.220;2023-04-01T22:25:07;7.10;99.90
6429;DHT22;3247;48.946;10.220;2023-04-01T22:27:38;7.10;99.90
6429;DHT22;3247;48.946;10.220;2023-04-01T22:30:11;7.00;99.90
6429;DHT22;3247;48.946;10.220;2023-04-01T22:32:45;7.00;99.90
6429;DHT22;3247;48.946;10.220;2023-04-01T22:37:58;7.10;99.90
6429;DHT22;3247;48.946;10.220;2023-04-01T22:43:12;7.00;99.90
6429;DHT22;3247;48.946;10.220;2023-04-01T22:48:26;7.00;99.90
6429;DHT22;3247;48.946;10.220;2023-04-01T22:56:07;6.90;99.90
6429;DHT22;3247;48.946;10.220;2023-04-01T22:58:37;6.90;99.90
6429;DHT22;3247;48.946;10.220;2023-04-01T23:01:14;6.90;99.90
6429;DHT22;3247;48.946;10.220;2023-04-01T23:03:42;7.00;99.90
6429;DHT22;3247;48.946;10.220;2023-04-01T23:06:12;7.00;99.90
6429;DHT22;3247;48.946;10.220;2023-04-01T23:11:55;6.90;99.90
6429;DHT22;3247;48.946;10.220;2023-04-01T23:19:37;6.90;99.90
6429;DHT22;3247;48.946;10.220;2023-04-01T23:22:19;6.90;99.90
6429;DHT22;3247;48.946;10.220;2023-04-01T23:24:58;6.90;99.90
6429;DHT22;3247;48.946;10.220;2023-04-01T23:27:31;6.90;99.90
6429;DHT22;3247;48.946;10.220;2023-04-01T23:29:59;6.90;99.90
6429;DHT22;3247;48.946;10.220;2023-04-01T23:32:25;6.90;99.90
6429;DHT22;3247;48.946;10.220;2023-04-01T23:34:55;6.90;99.90
6429;DHT22;3247;48.946;10.220;2023-04-01T23:37:22;6.90;99.90
6429;DHT22;3247;48.946;10.220;2023-04-01T23:39:48;7.00;99.90
6429;DHT22;3247;48.946;10.220;2023-04-01T23:42:30;7.00;99.90
6429;DHT22;3247;48.946;10.220;2023-04-01T23:45:03;7.00;99.90
6429;DHT22;3247;48.946;10.220;2023-04-01T23:47:30;7.00;99.90
6429;DHT22;3247;48.946;10.220;2023-04-01T23:49:57;7.00;99.90
6429;DHT22;3247;48.946;10.220;2023-04-01T23:52:24;7.10;99.90
6429;DHT22;3247;48.946;10.220;2023-04-01T23:54:57;7.10;99.90
6429;DHT22;3247;48.946;10.220;2023-04-01T23:57:30;7.00;99.90
